EDDL/DUS METAR and TAF weather

Enter ICAO airport designator
Station Type Date Time Source
EDDL METAR 2020/02/26 09:20 UTC NOAA

EDDL 260920Z 27010KT 7000 -DZ SCT005 BKN007 02/01 Q0997 BECMG SCT006 BKN020


Station Type Date Time Source
EDDL Decoded METAR 2020/02/26 09:20 UTC NOAA

Duesseldorf, Germany (EDDL) 51-18N 006-46E 41M
Feb 26, 2020 - 04:20 AM EST / 2020.02.26 0920 UTC
Wind: from the W (270 degrees) at 12 MPH (10 KT):0
Visibility: 4 mile(s):0
Sky conditions: mostly cloudy
Weather: light drizzle
Temperature: 35 F (2 C)
Windchill: 26 F (-3 C):1
Dew Point: 33 F (1 C)
Relative Humidity: 93%
Pressure (altimeter): 29.44 in. Hg (0997 hPa)
ob: EDDL 260920Z 27010KT 7000 -DZ SCT005 BKN007 02/01 Q0997 BECMG SCT006 BKN020
cycle: 9

Station Type Date Time Source
EDDL TAF 2020/02/26 06:27 UTC NOAA

TAF EDDL 260500Z 2606/2712 24013KT 9999 BKN010
TEMPO 2606/2619 27015G25KT 4500 SHRA BKN012CB PROB40
TEMPO 2606/2611 1400 SHSN BKN004CB
BECMG 2612/2615 BKN020 PROB30
TEMPO 2612/2616 27020G30KT 2500 TSRAGS BKN012CB
BECMG 2617/2620 25008KT
BECMG 2704/2707 19010KT

Example: see airport list